sensor_id;sensor_type;location;lat;lon;timestamp;P1;durP1;ratioP1;P2;durP2;ratioP2
8572;SDS011;4324;42.012;24.872;2022-07-29T00:01:48;9.57;;;8.67;;
8572;SDS011;4324;42.012;24.872;2022-07-29T00:04:17;9.10;;;8.40;;
8572;SDS011;4324;42.012;24.872;2022-07-29T00:06:44;8.70;;;8.00;;
8572;SDS011;4324;42.012;24.872;2022-07-29T00:09:13;9.00;;;8.30;;
8572;SDS011;4324;42.012;24.872;2022-07-29T00:11:39;9.03;;;8.17;;
8572;SDS011;4324;42.012;24.872;2022-07-29T00:14:06;9.13;;;8.43;;
8572;SDS011;4324;42.012;24.872;2022-07-29T00:16:34;9.60;;;8.87;;
8572;SDS011;4324;42.012;24.872;2022-07-29T00:19:01;9.83;;;9.07;;
8572;SDS011;4324;42.012;24.872;2022-07-29T00:21:28;10.53;;;9.53;;
8572;SDS011;4324;42.012;24.872;2022-07-29T00:23:55;9.80;;;8.93;;
8572;SDS011;4324;42.012;24.872;2022-07-29T00:26:23;9.67;;;8.97;;
8572;SDS011;4324;42.012;24.872;2022-07-29T00:28:53;10.00;;;9.20;;
8572;SDS011;4324;42.012;24.872;2022-07-29T00:31:19;9.73;;;9.03;;
8572;SDS011;4324;42.012;24.872;2022-07-29T00:33:46;10.57;;;9.67;;
8572;SDS011;4324;42.012;24.872;2022-07-29T00:36:13;10.37;;;9.67;;
8572;SDS011;4324;42.012;24.872;2022-07-29T00:38:39;10.53;;;9.73;;
8572;SDS011;4324;42.012;24.872;2022-07-29T00:41:09;10.50;;;9.57;;
8572;SDS011;4324;42.012;24.872;2022-07-29T00:43:37;10.63;;;9.73;;
8572;SDS011;4324;42.012;24.872;2022-07-29T00:46:04;10.00;;;9.20;;
8572;SDS011;4324;42.012;24.872;2022-07-29T00:48:31;9.50;;;8.80;;
8572;SDS011;4324;42.012;24.872;2022-07-29T00:50:59;10.40;;;9.60;;
8572;SDS011;4324;42.012;24.872;2022-07-29T00:53:29;9.90;;;9.10;;
8572;SDS011;4324;42.012;24.872;2022-07-29T00:55:56;9.87;;;9.07;;
8572;SDS011;4324;42.012;24.872;2022-07-29T00:58:24;10.03;;;9.23;;
8572;SDS011;4324;42.012;24.872;2022-07-29T01:00:54;9.73;;;9.03;;
8572;SDS011;4324;42.012;24.872;2022-07-29T01:03:21;9.27;;;8.47;;
8572;SDS011;4324;42.012;24.872;2022-07-29T01:05:48;9.17;;;8.47;;
8572;SDS011;4324;42.012;24.872;2022-07-29T01:08:15;9.67;;;8.83;;
8572;SDS011;4324;42.012;24.872;2022-07-29T01:10:43;9.47;;;8.77;;
8572;SDS011;4324;42.012;24.872;2022-07-29T01:13:11;10.13;;;9.23;;
8572;SDS011;4324;42.012;24.872;2022-07-29T01:15:41;10.10;;;9.30;;
8572;SDS011;4324;42.012;24.872;2022-07-29T01:18:16;9.90;;;9.10;;
8572;SDS011;4324;42.012;24.872;2022-07-29T01:23:48;9.50;;;8.70;;
8572;SDS011;4324;42.012;24.872;2022-07-29T01:26:33;9.80;;;9.00;;
8572;SDS011;4324;42.012;24.872;2022-07-29T01:29:11;9.50;;;8.53;;
8572;SDS011;4324;42.012;24.872;2022-07-29T01:31:43;9.57;;;8.67;;
8572;SDS011;4324;42.012;24.872;2022-07-29T01:34:15;9.57;;;8.77;;
8572;SDS011;4324;42.012;24.872;2022-07-29T01:36:50;8.87;;;8.17;;
8572;SDS011;4324;42.012;24.872;2022-07-29T01:39:23;8.80;;;8.10;;
8572;SDS011;4324;42.012;24.872;2022-07-29T01:41:57;9.10;;;8.40;;
8572;SDS011;4324;42.012;24.872;2022-07-29T01:44:33;8.83;;;8.13;;
8572;SDS011;4324;42.012;24.872;2022-07-29T01:47:05;9.00;;;8.30;;
8572;SDS011;4324;42.012;24.872;2022-07-29T01:49:39;10.10;;;9.30;;
8572;SDS011;4324;42.012;24.872;2022-07-29T01:52:13;9.30;;;8.60;;
8572;SDS011;4324;42.012;24.872;2022-07-29T01:54:49;9.67;;;8.83;;
8572;SDS011;4324;42.012;24.872;2022-07-29T01:57:20;10.00;;;9.00;;
8572;SDS011;4324;42.012;24.872;2022-07-29T01:59:52;9.63;;;8.73;;
8572;SDS011;4324;42.012;24.872;2022-07-29T02:02:22;9.40;;;8.77;;
8572;SDS011;4324;42.012;24.872;2022-07-29T02:04:50;8.80;;;8.17;;
8572;SDS011;4324;42.012;24.872;2022-07-29T02:07:20;9.43;;;8.60;;
8572;SDS011;4324;42.012;24.872;2022-07-29T02:09:49;9.73;;;8.70;;
8572;SDS011;4324;42.012;24.872;2022-07-29T02:12:18;9.27;;;8.47;;
8572;SDS011;4324;42.012;24.872;2022-07-29T02:14:47;9.30;;;8.53;;
8572;SDS011;4324;42.012;24.872;2022-07-29T02:17:21;11.77;;;8.33;;
8572;SDS011;4324;42.012;24.872;2022-07-29T02:19:52;8.70;;;7.87;;
8572;SDS011;4324;42.012;24.872;2022-07-29T02:22:22;9.37;;;8.60;;
8572;SDS011;4324;42.012;24.872;2022-07-29T02:24:50;9.30;;;8.63;;
8572;SDS011;4324;42.012;24.872;2022-07-29T02:27:19;9.53;;;8.83;;
8572;SDS011;4324;42.012;24.872;2022-07-29T02:29:46;9.00;;;8.30;;
8572;SDS011;4324;42.012;24.872;2022-07-29T02:32:15;15.40;;;9.00;;
8572;SDS011;4324;42.012;24.872;2022-07-29T02:34:45;9.40;;;8.50;;
8572;SDS011;4324;42.012;24.872;2022-07-29T02:37:14;9.27;;;8.57;;
8572;SDS011;4324;42.012;24.872;2022-07-29T02:39:44;9.13;;;8.33;;
8572;SDS011;4324;42.012;24.872;2022-07-29T02:42:14;9.37;;;8.67;;
8572;SDS011;4324;42.012;24.872;2022-07-29T02:44:43;8.80;;;8.17;;
8572;SDS011;4324;42.012;24.872;2022-07-29T02:47:12;8.80;;;8.10;;
8572;SDS011;4324;42.012;24.872;2022-07-29T02:49:47;8.37;;;7.67;;
8572;SDS011;4324;42.012;24.872;2022-07-29T02:52:20;8.53;;;7.83;;
8572;SDS011;4324;42.012;24.872;2022-07-29T02:54:51;9.87;;;8.40;;
8572;SDS011;4324;42.012;24.872;2022-07-29T02:57:30;9.10;;;8.20;;
8572;SDS011;4324;42.012;24.872;2022-07-29T03:00:01;9.80;;;8.97;;
8572;SDS011;4324;42.012;24.872;2022-07-29T03:02:33;9.43;;;8.73;;
8572;SDS011;4324;42.012;24.872;2022-07-29T03:05:04;9.70;;;8.80;;
8572;SDS011;4324;42.012;24.872;2022-07-29T03:07:34;9.07;;;8.37;;
8572;SDS011;4324;42.012;24.872;2022-07-29T03:10:02;9.40;;;8.53;;
8572;SDS011;4324;42.012;24.872;2022-07-29T03:12:30;9.90;;;9.10;;
8572;SDS011;4324;42.012;24.872;2022-07-29T03:14:58;9.23;;;8.53;;
8572;SDS011;4324;42.012;24.872;2022-07-29T03:17:27;8.73;;;8.03;;
8572;SDS011;4324;42.012;24.872;2022-07-29T03:19:54;8.97;;;8.17;;
8572;SDS011;4324;42.012;24.872;2022-07-29T03:22:23;9.33;;;8.57;;
8572;SDS011;4324;42.012;24.872;2022-07-29T03:24:50;8.57;;;7.93;;
8572;SDS011;4324;42.012;24.872;2022-07-29T03:27:17;9.17;;;8.40;;
8572;SDS011;4324;42.012;24.872;2022-07-29T03:29:44;8.50;;;7.80;;
8572;SDS011;4324;42.012;24.872;2022-07-29T03:32:11;9.37;;;8.57;;
8572;SDS011;4324;42.012;24.872;2022-07-29T03:34:38;9.33;;;8.60;;
8572;SDS011;4324;42.012;24.872;2022-07-29T03:37:05;9.60;;;8.90;;
8572;SDS011;4324;42.012;24.872;2022-07-29T03:39:35;9.27;;;8.47;;
8572;SDS011;4324;42.012;24.872;2022-07-29T03:42:05;9.13;;;8.23;;
8572;SDS011;4324;42.012;24.872;2022-07-29T03:44:35;8.70;;;8.00;;
8572;SDS011;4324;42.012;24.872;2022-07-29T03:47:03;8.83;;;8.17;;
8572;SDS011;4324;42.012;24.872;2022-07-29T03:49:33;9.90;;;9.10;;
8572;SDS011;4324;42.012;24.872;2022-07-29T03:52:04;9.63;;;8.80;;
8572;SDS011;4324;42.012;24.872;2022-07-29T03:54:31;9.27;;;8.47;;
8572;SDS011;4324;42.012;24.872;2022-07-29T03:57:01;10.63;;;8.97;;
8572;SDS011;4324;42.012;24.872;2022-07-29T03:59:28;10.43;;;9.60;;
8572;SDS011;4324;42.012;24.872;2022-07-29T04:01:59;10.63;;;9.53;;
8572;SDS011;4324;42.012;24.872;2022-07-29T04:04:27;8.90;;;8.10;;
8572;SDS011;4324;42.012;24.872;2022-07-29T04:06:55;9.43;;;8.73;;
8572;SDS011;4324;42.012;24.872;2022-07-29T04:09:22;8.97;;;8.37;;
8572;SDS011;4324;42.012;24.872;2022-07-29T04:11:48;10.87;;;9.77;;
8572;SDS011;4324;42.012;24.872;2022-07-29T04:14:17;8.80;;;8.10;;
8572;SDS011;4324;42.012;24.872;2022-07-29T04:16:45;8.60;;;7.90;;
8572;SDS011;4324;42.012;24.872;2022-07-29T04:19:12;9.60;;;8.60;;
8572;SDS011;4324;42.012;24.872;2022-07-29T04:21:39;9.83;;;9.03;;
8572;SDS011;4324;42.012;24.872;2022-07-29T04:24:07;9.87;;;9.17;;
8572;SDS011;4324;42.012;24.872;2022-07-29T04:26:34;9.13;;;8.33;;
8572;SDS011;4324;42.012;24.872;2022-07-29T04:29:01;9.90;;;9.13;;
8572;SDS011;4324;42.012;24.872;2022-07-29T04:31:30;9.20;;;8.60;;
8572;SDS011;4324;42.012;24.872;2022-07-29T04:33:57;8.67;;;7.97;;
8572;SDS011;4324;42.012;24.872;2022-07-29T04:36:24;9.70;;;8.93;;
8572;SDS011;4324;42.012;24.872;2022-07-29T04:38:50;9.63;;;8.43;;
8572;SDS011;4324;42.012;24.872;2022-07-29T04:41:17;9.70;;;8.80;;
8572;SDS011;4324;42.012;24.872;2022-07-29T04:43:44;9.03;;;8.00;;
8572;SDS011;4324;42.012;24.872;2022-07-29T04:46:11;9.13;;;8.37;;
8572;SDS011;4324;42.012;24.872;2022-07-29T04:48:39;10.40;;;8.23;;
8572;SDS011;4324;42.012;24.872;2022-07-29T04:51:06;9.73;;;8.93;;
8572;SDS011;4324;42.012;24.872;2022-07-29T04:53:33;9.17;;;8.47;;
8572;SDS011;4324;42.012;24.872;2022-07-29T04:56:00;8.67;;;8.07;;
8572;SDS011;4324;42.012;24.872;2022-07-29T04:58:28;9.27;;;8.47;;
8572;SDS011;4324;42.012;24.872;2022-07-29T05:00:55;10.00;;;9.00;;
8572;SDS011;4324;42.012;24.872;2022-07-29T05:03:22;9.70;;;9.00;;
8572;SDS011;4324;42.012;24.872;2022-07-29T05:05:50;10.23;;;9.30;;
8572;SDS011;4324;42.012;24.872;2022-07-29T05:08:17;10.37;;;9.40;;
8572;SDS011;4324;42.012;24.872;2022-07-29T05:10:44;10.23;;;9.37;;
8572;SDS011;4324;42.012;24.872;2022-07-29T05:13:11;9.50;;;8.80;;
8572;SDS011;4324;42.012;24.872;2022-07-29T05:15:38;9.57;;;8.77;;
8572;SDS011;4324;42.012;24.872;2022-07-29T05:18:05;13.70;;;9.47;;
8572;SDS011;4324;42.012;24.872;2022-07-29T05:20:33;13.23;;;9.43;;
8572;SDS011;4324;42.012;24.872;2022-07-29T05:23:02;11.27;;;9.47;;
8572;SDS011;4324;42.012;24.872;2022-07-29T05:25:30;8.57;;;7.97;;
8572;SDS011;4324;42.012;24.872;2022-07-29T05:27:57;9.33;;;8.63;;
8572;SDS011;4324;42.012;24.872;2022-07-29T05:30:24;8.80;;;8.07;;
8572;SDS011;4324;42.012;24.872;2022-07-29T05:32:51;9.27;;;8.57;;
8572;SDS011;4324;42.012;24.872;2022-07-29T05:35:18;9.70;;;8.90;;
8572;SDS011;4324;42.012;24.872;2022-07-29T05:37:45;12.03;;;9.67;;
8572;SDS011;4324;42.012;24.872;2022-07-29T05:40:13;9.60;;;8.70;;
8572;SDS011;4324;42.012;24.872;2022-07-29T05:42:40;10.77;;;9.77;;
8572;SDS011;4324;42.012;24.872;2022-07-29T05:45:07;12.50;;;11.30;;
8572;SDS011;4324;42.012;24.872;2022-07-29T05:47:35;11.20;;;10.30;;
8572;SDS011;4324;42.012;24.872;2022-07-29T05:50:02;9.60;;;8.60;;
8572;SDS011;4324;42.012;24.872;2022-07-29T05:52:29;11.20;;;10.10;;
8572;SDS011;4324;42.012;24.872;2022-07-29T05:54:56;10.53;;;9.60;;
8572;SDS011;4324;42.012;24.872;2022-07-29T05:57:24;15.30;;;14.00;;
8572;SDS011;4324;42.012;24.872;2022-07-29T05:59:51;9.37;;;8.67;;
8572;SDS011;4324;42.012;24.872;2022-07-29T06:02:19;11.23;;;10.23;;
8572;SDS011;4324;42.012;24.872;2022-07-29T06:04:46;9.20;;;8.50;;
8572;SDS011;4324;42.012;24.872;2022-07-29T06:07:13;9.43;;;8.70;;
8572;SDS011;4324;42.012;24.872;2022-07-29T06:09:41;11.00;;;10.10;;
8572;SDS011;4324;42.012;24.872;2022-07-29T06:12:08;9.47;;;8.57;;
8572;SDS011;4324;42.012;24.872;2022-07-29T06:14:36;14.87;;;13.47;;
8572;SDS011;4324;42.012;24.872;2022-07-29T06:17:03;13.63;;;12.23;;
8572;SDS011;4324;42.012;24.872;2022-07-29T06:19:33;11.00;;;9.90;;
8572;SDS011;4324;42.012;24.872;2022-07-29T06:22:00;10.13;;;9.33;;
8572;SDS011;4324;42.012;24.872;2022-07-29T06:24:28;9.23;;;8.53;;
8572;SDS011;4324;42.012;24.872;2022-07-29T06:26:55;12.67;;;11.10;;
8572;SDS011;4324;42.012;24.872;2022-07-29T06:29:22;10.50;;;9.70;;
8572;SDS011;4324;42.012;24.872;2022-07-29T06:31:51;10.43;;;9.53;;
8572;SDS011;4324;42.012;24.872;2022-07-29T06:34:17;11.63;;;10.57;;
8572;SDS011;4324;42.012;24.872;2022-07-29T06:36:45;9.40;;;8.70;;
8572;SDS011;4324;42.012;24.872;2022-07-29T06:39:12;11.90;;;11.00;;
8572;SDS011;4324;42.012;24.872;2022-07-29T06:41:38;17.17;;;15.70;;
8572;SDS011;4324;42.012;24.872;2022-07-29T06:44:06;10.63;;;9.70;;
8572;SDS011;4324;42.012;24.872;2022-07-29T06:46:33;12.53;;;11.50;;
8572;SDS011;4324;42.012;24.872;2022-07-29T06:49:01;9.83;;;9.03;;
8572;SDS011;4324;42.012;24.872;2022-07-29T06:51:28;10.40;;;9.63;;
8572;SDS011;4324;42.012;24.872;2022-07-29T06:53:55;10.57;;;9.60;;
8572;SDS011;4324;42.012;24.872;2022-07-29T06:56:22;10.03;;;8.40;;
8572;SDS011;4324;42.012;24.872;2022-07-29T06:58:49;8.30;;;7.70;;
8572;SDS011;4324;42.012;24.872;2022-07-29T07:01:16;8.73;;;7.97;;
8572;SDS011;4324;42.012;24.872;2022-07-29T07:03:43;8.10;;;7.40;;
8572;SDS011;4324;42.012;24.872;2022-07-29T07:06:11;9.07;;;8.27;;
8572;SDS011;4324;42.012;24.872;2022-07-29T07:08:38;8.73;;;8.03;;
8572;SDS011;4324;42.012;24.872;2022-07-29T07:11:05;11.23;;;8.40;;
8572;SDS011;4324;42.012;24.872;2022-07-29T07:13:32;9.63;;;7.60;;
8572;SDS011;4324;42.012;24.872;2022-07-29T07:16:00;7.43;;;6.83;;
8572;SDS011;4324;42.012;24.872;2022-07-29T07:18:27;12.97;;;11.77;;
8572;SDS011;4324;42.012;24.872;2022-07-29T07:20:55;18.43;;;15.90;;
8572;SDS011;4324;42.012;24.872;2022-07-29T07:23:24;8.77;;;7.93;;
8572;SDS011;4324;42.012;24.872;2022-07-29T07:25:51;7.87;;;7.37;;
8572;SDS011;4324;42.012;24.872;2022-07-29T07:28:18;10.60;;;8.07;;
8572;SDS011;4324;42.012;24.872;2022-07-29T07:30:45;12.73;;;10.93;;
8572;SDS011;4324;42.012;24.872;2022-07-29T07:33:12;12.50;;;11.53;;
8572;SDS011;4324;42.012;24.872;2022-07-29T07:35:39;9.40;;;8.50;;
8572;SDS011;4324;42.012;24.872;2022-07-29T07:38:07;15.80;;;14.50;;
8572;SDS011;4324;42.012;24.872;2022-07-29T07:40:35;8.83;;;8.20;;
8572;SDS011;4324;42.012;24.872;2022-07-29T07:43:02;8.70;;;7.80;;
8572;SDS011;4324;42.012;24.872;2022-07-29T07:45:29;8.60;;;8.00;;
8572;SDS011;4324;42.012;24.872;2022-07-29T07:47:57;9.40;;;8.50;;
8572;SDS011;4324;42.012;24.872;2022-07-29T07:50:24;9.40;;;8.40;;
8572;SDS011;4324;42.012;24.872;2022-07-29T07:52:53;11.43;;;10.40;;
8572;SDS011;4324;42.012;24.872;2022-07-29T07:55:22;9.90;;;8.93;;
8572;SDS011;4324;42.012;24.872;2022-07-29T07:57:51;7.57;;;6.97;;
8572;SDS011;4324;42.012;24.872;2022-07-29T08:00:18;10.73;;;9.83;;
8572;SDS011;4324;42.012;24.872;2022-07-29T08:02:45;7.83;;;7.27;;
8572;SDS011;4324;42.012;24.872;2022-07-29T08:05:12;8.97;;;8.10;;
8572;SDS011;4324;42.012;24.872;2022-07-29T08:07:42;8.67;;;7.93;;
8572;SDS011;4324;42.012;24.872;2022-07-29T08:10:10;9.90;;;9.17;;
8572;SDS011;4324;42.012;24.872;2022-07-29T08:12:37;7.47;;;6.87;;
8572;SDS011;4324;42.012;24.872;2022-07-29T08:15:06;9.47;;;8.60;;
8572;SDS011;4324;42.012;24.872;2022-07-29T08:17:34;9.40;;;7.90;;
8572;SDS011;4324;42.012;24.872;2022-07-29T08:20:01;8.40;;;7.60;;
8572;SDS011;4324;42.012;24.872;2022-07-29T08:22:29;7.87;;;7.17;;
8572;SDS011;4324;42.012;24.872;2022-07-29T08:24:56;6.70;;;6.30;;
8572;SDS011;4324;42.012;24.872;2022-07-29T08:27:23;6.57;;;6.07;;
8572;SDS011;4324;42.012;24.872;2022-07-29T08:29:51;6.90;;;6.30;;
8572;SDS011;4324;42.012;24.872;2022-07-29T08:32:19;6.97;;;6.40;;
8572;SDS011;4324;42.012;24.872;2022-07-29T08:34:46;6.80;;;5.67;;
8572;SDS011;4324;42.012;24.872;2022-07-29T08:37:13;5.10;;;4.80;;
8572;SDS011;4324;42.012;24.872;2022-07-29T08:39:40;5.47;;;4.97;;
8572;SDS011;4324;42.012;24.872;2022-07-29T08:42:07;6.43;;;5.93;;
8572;SDS011;4324;42.012;24.872;2022-07-29T08:44:35;5.50;;;5.10;;
8572;SDS011;4324;42.012;24.872;2022-07-29T08:47:03;6.50;;;6.00;;
8572;SDS011;4324;42.012;24.872;2022-07-29T08:49:33;7.60;;;7.10;;
8572;SDS011;4324;42.012;24.872;2022-07-29T08:52:01;5.82;;;5.43;;
8572;SDS011;4324;42.012;24.872;2022-07-29T08:54:29;8.60;;;6.00;;
8572;SDS011;4324;42.012;24.872;2022-07-29T08:56:57;6.25;;;5.85;;
8572;SDS011;4324;42.012;24.872;2022-07-29T08:59:25;5.45;;;5.05;;
8572;SDS011;4324;42.012;24.872;2022-07-29T09:01:53;5.95;;;5.50;;
8572;SDS011;4324;42.012;24.872;2022-07-29T09:04:20;7.85;;;5.90;;
8572;SDS011;4324;42.012;24.872;2022-07-29T09:06:51;5.50;;;5.00;;
8572;SDS011;4324;42.012;24.872;2022-07-29T09:09:20;5.00;;;4.60;;
8572;SDS011;4324;42.012;24.872;2022-07-29T09:11:47;6.00;;;5.50;;
8572;SDS011;4324;42.012;24.872;2022-07-29T09:14:14;5.38;;;4.78;;
8572;SDS011;4324;42.012;24.872;2022-07-29T09:16:49;6.85;;;6.25;;
8572;SDS011;4324;42.012;24.872;2022-07-29T09:19:25;5.60;;;5.20;;
8572;SDS011;4324;42.012;24.872;2022-07-29T09:21:55;6.47;;;6.03;;
8572;SDS011;4324;42.012;24.872;2022-07-29T09:24:27;5.00;;;4.60;;
8572;SDS011;4324;42.012;24.872;2022-07-29T09:27:06;5.10;;;4.60;;
8572;SDS011;4324;42.012;24.872;2022-07-29T09:29:35;5.28;;;4.88;;
8572;SDS011;4324;42.012;24.872;2022-07-29T09:32:05;5.00;;;4.65;;
8572;SDS011;4324;42.012;24.872;2022-07-29T09:34:36;5.13;;;4.68;;
8572;SDS011;4324;42.012;24.872;2022-07-29T09:37:05;4.85;;;4.55;;
8572;SDS011;4324;42.012;24.872;2022-07-29T09:39:32;6.13;;;5.63;;
8572;SDS011;4324;42.012;24.872;2022-07-29T09:42:02;5.78;;;5.28;;
8572;SDS011;4324;42.012;24.872;2022-07-29T09:44:40;6.20;;;5.75;;
8572;SDS011;4324;42.012;24.872;2022-07-29T09:47:08;6.50;;;6.10;;
8572;SDS011;4324;42.012;24.872;2022-07-29T09:49:50;12.05;;;10.90;;
8572;SDS011;4324;42.012;24.872;2022-07-29T09:52:21;5.65;;;5.25;;
8572;SDS011;4324;42.012;24.872;2022-07-29T09:54:48;6.78;;;6.18;;
8572;SDS011;4324;42.012;24.872;2022-07-29T09:57:22;5.18;;;4.78;;
8572;SDS011;4324;42.012;24.872;2022-07-29T09:59:56;6.38;;;5.93;;
8572;SDS011;4324;42.012;24.872;2022-07-29T10:02:27;6.10;;;5.53;;
8572;SDS011;4324;42.012;24.872;2022-07-29T10:04:56;4.60;;;4.30;;
8572;SDS011;4324;42.012;24.872;2022-07-29T10:07:25;5.50;;;5.10;;
8572;SDS011;4324;42.012;24.872;2022-07-29T10:09:52;4.90;;;4.60;;
8572;SDS011;4324;42.012;24.872;2022-07-29T10:12:21;5.30;;;4.90;;
8572;SDS011;4324;42.012;24.872;2022-07-29T10:14:48;6.00;;;5.50;;
8572;SDS011;4324;42.012;24.872;2022-07-29T10:17:17;5.00;;;4.63;;
8572;SDS011;4324;42.012;24.872;2022-07-29T10:19:45;7.95;;;7.35;;
8572;SDS011;4324;42.012;24.872;2022-07-29T10:22:14;9.85;;;8.85;;
8572;SDS011;4324;42.012;24.872;2022-07-29T10:24:42;5.70;;;5.30;;
8572;SDS011;4324;42.012;24.872;2022-07-29T10:27:09;5.55;;;5.10;;
8572;SDS011;4324;42.012;24.872;2022-07-29T10:29:37;12.38;;;6.43;;
8572;SDS011;4324;42.012;24.872;2022-07-29T10:32:10;6.95;;;6.35;;
8572;SDS011;4324;42.012;24.872;2022-07-29T10:34:57;10.73;;;6.53;;
8572;SDS011;4324;42.012;24.872;2022-07-29T10:37:37;6.85;;;6.15;;
8572;SDS011;4324;42.012;24.872;2022-07-29T10:40:36;7.75;;;6.63;;
8572;SDS011;4324;42.012;24.872;2022-07-29T10:43:30;6.10;;;5.60;;
8572;SDS011;4324;42.012;24.872;2022-07-29T10:46:03;10.90;;;9.88;;
8572;SDS011;4324;42.012;24.872;2022-07-29T10:48:31;6.18;;;5.57;;
8572;SDS011;4324;42.012;24.872;2022-07-29T10:50:59;6.13;;;5.53;;
8572;SDS011;4324;42.012;24.872;2022-07-29T10:56:24;5.45;;;5.05;;
8572;SDS011;4324;42.012;24.872;2022-07-29T11:01:56;9.77;;;8.95;;
8572;SDS011;4324;42.012;24.872;2022-07-29T11:07:23;7.60;;;6.93;;
8572;SDS011;4324;42.012;24.872;2022-07-29T11:12:47;6.50;;;5.80;;
8572;SDS011;4324;42.012;24.872;2022-07-29T11:15:17;6.30;;;5.80;;
8572;SDS011;4324;42.012;24.872;2022-07-29T11:18:05;5.70;;;5.30;;
8572;SDS011;4324;42.012;24.872;2022-07-29T11:20:37;6.63;;;5.93;;
8572;SDS011;4324;42.012;24.872;2022-07-29T11:23:20;5.60;;;5.20;;
8572;SDS011;4324;42.012;24.872;2022-07-29T11:28:54;5.30;;;5.00;;
8572;SDS011;4324;42.012;24.872;2022-07-29T11:31:33;6.00;;;5.40;;
8572;SDS011;4324;42.012;24.872;2022-07-29T11:34:15;6.18;;;4.93;;
8572;SDS011;4324;42.012;24.872;2022-07-29T11:39:47;5.43;;;4.95;;
8572;SDS011;4324;42.012;24.872;2022-07-29T11:42:39;5.47;;;5.07;;
8572;SDS011;4324;42.012;24.872;2022-07-29T11:45:12;5.38;;;4.93;;
8572;SDS011;4324;42.012;24.872;2022-07-29T11:47:41;5.85;;;5.00;;
8572;SDS011;4324;42.012;24.872;2022-07-29T11:50:15;5.00;;;4.57;;
8572;SDS011;4324;42.012;24.872;2022-07-29T11:52:44;5.82;;;5.43;;
8572;SDS011;4324;42.012;24.872;2022-07-29T11:55:13;4.85;;;4.55;;
8572;SDS011;4324;42.012;24.872;2022-07-29T11:57:47;6.15;;;5.65;;
8572;SDS011;4324;42.012;24.872;2022-07-29T12:00:27;7.43;;;6.63;;
8572;SDS011;4324;42.012;24.872;2022-07-29T12:02:57;7.05;;;6.55;;
8572;SDS011;4324;42.012;24.872;2022-07-29T12:05:32;5.80;;;5.25;;
8572;SDS011;4324;42.012;24.872;2022-07-29T12:08:10;6.55;;;5.97;;
8572;SDS011;4324;42.012;24.872;2022-07-29T12:10:39;8.95;;;6.80;;
8572;SDS011;4324;42.012;24.872;2022-07-29T12:13:08;7.78;;;7.20;;
8572;SDS011;4324;42.012;24.872;2022-07-29T12:15:37;9.13;;;7.47;;
8572;SDS011;4324;42.012;24.872;2022-07-29T12:18:11;13.15;;;8.25;;
8572;SDS011;4324;42.012;24.872;2022-07-29T12:20:42;6.07;;;5.68;;
8572;SDS011;4324;42.012;24.872;2022-07-29T12:23:09;6.10;;;5.50;;
8572;SDS011;4324;42.012;24.872;2022-07-29T12:25:38;6.00;;;5.57;;
8572;SDS011;4324;42.012;24.872;2022-07-29T12:28:07;5.80;;;5.35;;
8572;SDS011;4324;42.012;24.872;2022-07-29T12:30:41;5.40;;;4.90;;
8572;SDS011;4324;42.012;24.872;2022-07-29T12:33:10;5.85;;;5.45;;
8572;SDS011;4324;42.012;24.872;2022-07-29T12:35:38;5.80;;;5.40;;
8572;SDS011;4324;42.012;24.872;2022-07-29T12:38:06;5.90;;;5.40;;
8572;SDS011;4324;42.012;24.872;2022-07-29T12:40:35;5.70;;;5.30;;
8572;SDS011;4324;42.012;24.872;2022-07-29T12:43:09;7.13;;;6.63;;
8572;SDS011;4324;42.012;24.872;2022-07-29T12:45:37;6.15;;;5.70;;
8572;SDS011;4324;42.012;24.872;2022-07-29T12:48:06;6.00;;;5.50;;
8572;SDS011;4324;42.012;24.872;2022-07-29T12:50:34;5.60;;;5.20;;
8572;SDS011;4324;42.012;24.872;2022-07-29T12:53:09;6.15;;;5.75;;
8572;SDS011;4324;42.012;24.872;2022-07-29T12:55:37;5.95;;;5.45;;
8572;SDS011;4324;42.012;24.872;2022-07-29T12:58:05;6.32;;;5.90;;
8572;SDS011;4324;42.012;24.872;2022-07-29T13:00:32;7.95;;;7.25;;
8572;SDS011;4324;42.012;24.872;2022-07-29T13:02:59;6.00;;;5.60;;
8572;SDS011;4324;42.012;24.872;2022-07-29T13:05:39;7.25;;;5.28;;
8572;SDS011;4324;42.012;24.872;2022-07-29T13:08:14;7.53;;;6.82;;
8572;SDS011;4324;42.012;24.872;2022-07-29T13:10:42;7.75;;;7.15;;
8572;SDS011;4324;42.012;24.872;2022-07-29T13:13:10;7.05;;;6.55;;
8572;SDS011;4324;42.012;24.872;2022-07-29T13:15:39;8.85;;;8.05;;
8572;SDS011;4324;42.012;24.872;2022-07-29T13:20:57;6.50;;;6.07;;
8572;SDS011;4324;42.012;24.872;2022-07-29T13:23:37;7.03;;;6.43;;
8572;SDS011;4324;42.012;24.872;2022-07-29T13:26:05;6.60;;;6.20;;
8572;SDS011;4324;42.012;24.872;2022-07-29T13:28:33;6.85;;;6.28;;
8572;SDS011;4324;42.012;24.872;2022-07-29T13:31:00;7.28;;;6.57;;
8572;SDS011;4324;42.012;24.872;2022-07-29T13:33:27;8.52;;;7.82;;
8572;SDS011;4324;42.012;24.872;2022-07-29T13:35:56;7.85;;;7.15;;
8572;SDS011;4324;42.012;24.872;2022-07-29T13:38:23;8.50;;;7.90;;
8572;SDS011;4324;42.012;24.872;2022-07-29T13:40:50;7.72;;;7.18;;
8572;SDS011;4324;42.012;24.872;2022-07-29T13:43:17;7.82;;;7.13;;
8572;SDS011;4324;42.012;24.872;2022-07-29T13:45:44;7.18;;;6.57;;
8572;SDS011;4324;42.012;24.872;2022-07-29T13:48:11;7.55;;;6.78;;
8572;SDS011;4324;42.012;24.872;2022-07-29T13:50:38;9.90;;;8.07;;
8572;SDS011;4324;42.012;24.872;2022-07-29T13:53:06;7.53;;;6.93;;
8572;SDS011;4324;42.012;24.872;2022-07-29T13:55:33;6.78;;;6.13;;
8572;SDS011;4324;42.012;24.872;2022-07-29T13:58:00;6.97;;;6.53;;
8572;SDS011;4324;42.012;24.872;2022-07-29T14:00:27;7.68;;;7.18;;
8572;SDS011;4324;42.012;24.872;2022-07-29T14:02:54;6.10;;;5.60;;
8572;SDS011;4324;42.012;24.872;2022-07-29T14:05:21;6.70;;;6.20;;
8572;SDS011;4324;42.012;24.872;2022-07-29T14:07:48;5.95;;;5.53;;
8572;SDS011;4324;42.012;24.872;2022-07-29T14:10:17;6.55;;;5.95;;
8572;SDS011;4324;42.012;24.872;2022-07-29T14:12:44;9.70;;;8.90;;
8572;SDS011;4324;42.012;24.872;2022-07-29T14:15:13;7.75;;;6.25;;
8572;SDS011;4324;42.012;24.872;2022-07-29T14:17:40;5.82;;;5.38;;
8572;SDS011;4324;42.012;24.872;2022-07-29T14:20:08;7.03;;;6.43;;
8572;SDS011;4324;42.012;24.872;2022-07-29T14:22:35;6.22;;;5.43;;
8572;SDS011;4324;42.012;24.872;2022-07-29T14:25:02;8.82;;;5.90;;
8572;SDS011;4324;42.012;24.872;2022-07-29T14:27:31;6.07;;;5.68;;
8572;SDS011;4324;42.012;24.872;2022-07-29T14:29:58;7.32;;;6.60;;
8572;SDS011;4324;42.012;24.872;2022-07-29T14:32:25;8.65;;;6.43;;
8572;SDS011;4324;42.012;24.872;2022-07-29T14:34:52;7.00;;;6.40;;
8572;SDS011;4324;42.012;24.872;2022-07-29T14:37:20;6.60;;;6.00;;
8572;SDS011;4324;42.012;24.872;2022-07-29T14:39:47;9.00;;;8.30;;
8572;SDS011;4324;42.012;24.872;2022-07-29T14:42:14;6.95;;;6.45;;
8572;SDS011;4324;42.012;24.872;2022-07-29T14:44:42;6.60;;;6.05;;
8572;SDS011;4324;42.012;24.872;2022-07-29T14:47:11;7.78;;;7.07;;
8572;SDS011;4324;42.012;24.872;2022-07-29T14:49:38;6.78;;;6.07;;
8572;SDS011;4324;42.012;24.872;2022-07-29T14:52:06;6.75;;;6.25;;
8572;SDS011;4324;42.012;24.872;2022-07-29T14:54:32;6.20;;;5.70;;
8572;SDS011;4324;42.012;24.872;2022-07-29T14:56:59;7.15;;;6.13;;
8572;SDS011;4324;42.012;24.872;2022-07-29T14:59:26;6.00;;;5.50;;
8572;SDS011;4324;42.012;24.872;2022-07-29T15:01:56;6.30;;;5.80;;
8572;SDS011;4324;42.012;24.872;2022-07-29T15:04:23;6.65;;;6.15;;
8572;SDS011;4324;42.012;24.872;2022-07-29T15:06:50;6.38;;;5.78;;
8572;SDS011;4324;42.012;24.872;2022-07-29T15:09:17;6.18;;;5.78;;
8572;SDS011;4324;42.012;24.872;2022-07-29T15:11:44;6.25;;;5.70;;
8572;SDS011;4324;42.012;24.872;2022-07-29T15:14:11;7.82;;;6.07;;
8572;SDS011;4324;42.012;24.872;2022-07-29T15:16:39;6.75;;;6.13;;
8572;SDS011;4324;42.012;24.872;2022-07-29T15:19:08;6.60;;;6.05;;
8572;SDS011;4324;42.012;24.872;2022-07-29T15:21:35;7.93;;;7.32;;
8572;SDS011;4324;42.012;24.872;2022-07-29T15:24:03;6.70;;;6.20;;
8572;SDS011;4324;42.012;24.872;2022-07-29T15:26:32;7.07;;;6.38;;
8572;SDS011;4324;42.012;24.872;2022-07-29T15:28:59;7.05;;;6.55;;
8572;SDS011;4324;42.012;24.872;2022-07-29T15:31:26;6.10;;;5.60;;
8572;SDS011;4324;42.012;24.872;2022-07-29T15:33:53;6.20;;;5.70;;